createdAt,value
2019-03-20T00:01:56.924Z,99.90
2019-03-20T00:05:03.496Z,99.90
2019-03-20T00:07:54.120Z,99.90
2019-03-20T00:14:13.457Z,99.90
2019-03-20T00:17:15.650Z,99.90
2019-03-20T00:20:27.437Z,99.90
2019-03-20T00:23:28.752Z,99.90
2019-03-20T00:26:30.383Z,99.90
2019-03-20T00:29:32.120Z,99.90
2019-03-20T00:32:40.248Z,99.90
2019-03-20T00:35:41.908Z,99.90
2019-03-20T00:38:43.736Z,99.90
2019-03-20T00:41:45.211Z,99.90
2019-03-20T00:44:46.813Z,99.90
2019-03-20T00:47:36.975Z,99.90
2019-03-20T00:50:49.112Z,99.90
2019-03-20T00:53:39.284Z,99.90
2019-03-20T00:56:30.688Z,99.90
2019-03-20T00:59:21.456Z,99.90
2019-03-20T01:02:30.573Z,99.90
2019-03-20T01:05:32.184Z,99.90
2019-03-20T01:08:22.344Z,99.90
2019-03-20T01:11:13.473Z,99.90
2019-03-20T01:14:14.743Z,99.90
2019-03-20T01:17:04.723Z,99.90
2019-03-20T01:20:15.170Z,99.90
2019-03-20T01:23:17.861Z,99.90
2019-03-20T01:26:07.786Z,99.90
2019-03-20T01:29:17.283Z,99.90
2019-03-20T01:32:19.519Z,99.90
2019-03-20T01:38:27.990Z,99.90
2019-03-20T01:41:37.653Z,99.90
2019-03-20T01:44:37.144Z,99.90
2019-03-20T01:47:39.251Z,99.90
2019-03-20T01:53:48.465Z,99.90
2019-03-20T01:56:50.659Z,99.90
2019-03-20T01:59:52.073Z,99.90
2019-03-20T02:02:55.099Z,99.90
2019-03-20T02:09:04.542Z,99.90
2019-03-20T02:12:06.316Z,99.90
2019-03-20T02:15:08.020Z,99.90
2019-03-20T02:18:10.181Z,99.90
2019-03-20T02:21:12.043Z,99.90
2019-03-20T02:24:13.737Z,99.90
2019-03-20T02:27:14.969Z,99.90
2019-03-20T02:30:16.986Z,99.90
2019-03-20T02:33:18.624Z,99.90
2019-03-20T02:39:30.576Z,99.90
2019-03-20T02:42:32.286Z,99.90
2019-03-20T02:45:34.335Z,99.90
2019-03-20T02:48:24.689Z,99.90
2019-03-20T02:51:34.163Z,99.90
2019-03-20T02:54:24.319Z,99.90
2019-03-20T02:57:33.737Z,99.90
2019-03-20T03:00:38.454Z,99.90
2019-03-20T03:03:39.727Z,99.90
2019-03-20T03:09:47.885Z,99.90
2019-03-20T03:12:49.804Z,99.90
2019-03-20T03:15:51.608Z,99.90
2019-03-20T03:18:53.301Z,99.90
2019-03-20T03:21:55.532Z,99.90
2019-03-20T03:24:46.047Z,99.90
2019-03-20T03:27:55.205Z,99.90
2019-03-20T03:30:57.137Z,99.90
2019-03-20T03:33:58.457Z,99.90
2019-03-20T03:40:07.451Z,99.90
2019-03-20T03:43:08.659Z,99.90
2019-03-20T03:46:08.662Z,99.90
2019-03-20T03:49:17.673Z,99.90
2019-03-20T03:52:18.925Z,99.90
2019-03-20T03:55:20.310Z,99.90
2019-03-20T03:58:21.956Z,99.90
2019-03-20T04:01:23.175Z,99.90
2019-03-20T04:04:24.121Z,99.90
2019-03-20T04:10:33.424Z,99.90
2019-03-20T04:13:23.795Z,99.90
2019-03-20T04:19:40.077Z,99.90
2019-03-20T04:22:41.343Z,99.90
2019-03-20T04:25:31.321Z,99.90
2019-03-20T04:28:21.537Z,99.90
2019-03-20T04:31:22.937Z,99.90
2019-03-20T04:34:13.474Z,99.90
2019-03-20T04:37:03.399Z,99.90
2019-03-20T04:43:02.913Z,99.90
2019-03-20T04:45:53.199Z,99.90
2019-03-20T04:48:42.920Z,99.90
2019-03-20T04:51:44.467Z,99.90
2019-03-20T04:54:45.614Z,99.90
2019-03-20T04:57:46.611Z,99.90
2019-03-20T05:00:48.467Z,99.90
2019-03-20T05:03:49.907Z,99.90
2019-03-20T05:06:58.848Z,99.90
2019-03-20T05:09:58.251Z,99.90
2019-03-20T05:13:00.203Z,99.90
2019-03-20T05:16:02.383Z,99.90
2019-03-20T05:18:52.552Z,99.90
2019-03-20T05:22:01.619Z,99.90
2019-03-20T05:25:03.177Z,99.90
2019-03-20T05:28:04.987Z,99.90
2019-03-20T05:31:06.592Z,99.90
2019-03-20T05:34:15.005Z,99.90
2019-03-20T05:37:15.845Z,99.90
2019-03-20T05:40:25.811Z,99.90
2019-03-20T05:43:27.807Z,99.90
2019-03-20T05:46:30.219Z,99.90
2019-03-20T05:49:32.466Z,99.90
2019-03-20T05:52:38.419Z,99.90
2019-03-20T05:55:40.830Z,99.90
2019-03-20T05:58:42.538Z,99.90
2019-03-20T06:07:25.106Z,99.90
2019-03-20T06:20:07.234Z,99.90
2019-03-20T06:25:59.025Z,99.90
2019-03-20T06:29:00.763Z,99.90
2019-03-20T06:38:11.796Z,99.90
2019-03-20T06:41:18.801Z,99.80
2019-03-20T06:44:20.016Z,98.80
2019-03-20T06:47:20.864Z,97.60
2019-03-20T06:50:22.677Z,96.40
2019-03-20T06:53:23.623Z,96.10
2019-03-20T06:56:25.525Z,95.50
2019-03-20T06:59:27.069Z,94.10
2019-03-20T07:05:53.079Z,93.10
2019-03-20T07:18:51.098Z,87.30
2019-03-20T07:21:52.320Z,89.20
2019-03-20T07:24:53.485Z,88.90
2019-03-20T07:27:54.451Z,89.00
2019-03-20T07:30:55.863Z,87.80
2019-03-20T07:33:57.631Z,86.50
2019-03-20T07:36:58.904Z,86.40
2019-03-20T07:39:59.891Z,84.80
2019-03-20T07:49:14.891Z,78.50
2019-03-20T07:52:16.066Z,77.60
2019-03-20T07:55:17.913Z,78.30
2019-03-20T07:58:19.628Z,77.10
2019-03-20T08:01:20.978Z,73.70
2019-03-20T08:10:46.403Z,72.90
2019-03-20T08:13:53.375Z,68.10
2019-03-20T08:16:54.643Z,67.20
2019-03-20T08:19:56.334Z,64.20
2019-03-20T08:26:18.167Z,64.10
2019-03-20T08:29:20.034Z,63.10
2019-03-20T08:32:21.488Z,61.00
2019-03-20T08:38:45.131Z,60.80
2019-03-20T08:41:48.367Z,59.10
2019-03-20T08:44:38.195Z,54.50
2019-03-20T08:47:47.200Z,52.10
2019-03-20T08:50:50.214Z,52.50
2019-03-20T08:53:51.966Z,50.90
2019-03-20T08:56:53.568Z,51.20
2019-03-20T08:59:53.434Z,49.70
2019-03-20T09:03:02.185Z,50.40
2019-03-20T09:06:03.542Z,48.70
2019-03-20T09:09:04.917Z,45.70
2019-03-20T09:12:06.384Z,44.80
2019-03-20T09:18:14.968Z,44.00
2019-03-20T09:21:16.074Z,41.90
2019-03-20T09:24:17.709Z,38.20
2019-03-20T09:27:19.711Z,37.90
2019-03-20T09:30:23.843Z,38.10
2019-03-20T09:33:25.720Z,40.60
2019-03-20T09:36:27.150Z,38.80
2019-03-20T09:39:28.947Z,39.20
2019-03-20T09:42:30.739Z,38.10
2019-03-20T09:48:53.883Z,34.00
2019-03-20T09:51:55.047Z,33.60
2019-03-20T09:57:59.138Z,32.10
2019-03-20T10:07:34.580Z,36.30
2019-03-20T10:10:36.583Z,34.40
2019-03-20T10:13:38.725Z,33.90
2019-03-20T10:16:28.588Z,36.30
2019-03-20T10:22:44.115Z,32.80
2019-03-20T10:25:45.599Z,33.10
2019-03-20T10:28:47.155Z,33.20
2019-03-20T10:31:48.976Z,35.40
2019-03-20T10:34:50.487Z,36.50
2019-03-20T10:37:51.718Z,37.10
2019-03-20T10:40:57.123Z,35.80
2019-03-20T10:43:58.471Z,37.60
2019-03-20T10:47:05.607Z,37.60
2019-03-20T10:50:07.058Z,38.20
2019-03-20T10:53:08.203Z,37.20
2019-03-20T10:56:09.884Z,36.80
2019-03-20T10:59:11.940Z,36.80
2019-03-20T11:02:13.412Z,36.10
2019-03-20T11:05:15.371Z,34.60
2019-03-20T11:08:17.036Z,35.00
2019-03-20T11:11:26.950Z,34.20
2019-03-20T11:14:22.302Z,35.00
2019-03-20T11:20:30.554Z,35.40
2019-03-20T11:23:38.030Z,35.70
2019-03-20T11:26:39.725Z,37.50
2019-03-20T11:29:42.013Z,36.80
2019-03-20T11:32:43.839Z,35.30
2019-03-20T11:35:45.102Z,34.00
2019-03-20T11:38:46.292Z,33.60
2019-03-20T11:41:48.312Z,34.20
2019-03-20T11:44:50.023Z,34.80
2019-03-20T11:47:39.935Z,35.40
2019-03-20T11:54:08.367Z,35.30
2019-03-20T11:57:09.495Z,34.90
2019-03-20T12:03:10.463Z,34.40
2019-03-20T12:06:10.497Z,35.00
2019-03-20T12:09:19.307Z,33.00
2019-03-20T12:12:20.587Z,32.70
2019-03-20T12:15:21.625Z,33.40
2019-03-20T12:18:29.568Z,32.70
2019-03-20T12:27:52.649Z,32.90
2019-03-20T12:30:52.636Z,34.80
2019-03-20T12:33:53.719Z,32.90
2019-03-20T12:36:56.619Z,33.10
2019-03-20T12:39:57.811Z,33.30
2019-03-20T12:42:59.207Z,31.20
2019-03-20T12:46:01.035Z,31.10
2019-03-20T12:52:09.589Z,30.80
2019-03-20T12:55:10.723Z,31.70
2019-03-20T12:58:12.690Z,33.30
2019-03-20T13:01:14.668Z,34.00
2019-03-20T13:04:15.755Z,35.20
2019-03-20T13:07:05.545Z,35.30
2019-03-20T13:10:33.609Z,36.40
2019-03-20T13:13:23.206Z,35.60
2019-03-20T13:16:32.185Z,34.80
2019-03-20T13:19:21.647Z,34.70
2019-03-20T13:22:30.675Z,35.50
2019-03-20T13:25:20.704Z,35.40
2019-03-20T13:34:45.503Z,39.90
2019-03-20T13:37:46.940Z,37.70
2019-03-20T13:43:59.205Z,36.50
2019-03-20T13:53:09.146Z,31.00
2019-03-20T13:56:18.308Z,31.80
2019-03-20T13:59:20.683Z,33.60
2019-03-20T14:05:55.593Z,34.00
2019-03-20T14:12:30.301Z,33.20
2019-03-20T14:15:32.246Z,31.50
2019-03-20T14:18:33.946Z,32.70
2019-03-20T14:28:03.975Z,33.00
2019-03-20T14:37:58.481Z,33.70
2019-03-20T14:41:00.001Z,33.50
2019-03-20T14:44:01.110Z,34.20
2019-03-20T14:47:02.761Z,35.50
2019-03-20T14:50:04.006Z,36.10
2019-03-20T14:56:13.015Z,35.50
2019-03-20T14:59:13.350Z,35.50
2019-03-20T15:02:14.536Z,35.40
2019-03-20T15:05:15.551Z,35.00
2019-03-20T15:08:16.695Z,34.70
2019-03-20T15:11:18.644Z,35.60
2019-03-20T15:14:18.684Z,34.10
2019-03-20T15:17:20.384Z,34.40
2019-03-20T15:20:21.581Z,32.70
2019-03-20T15:23:28.684Z,35.40
2019-03-20T15:26:30.233Z,35.90
2019-03-20T15:29:31.998Z,35.70
2019-03-20T15:32:33.306Z,35.80
2019-03-20T15:39:11.856Z,36.40
2019-03-20T15:45:10.905Z,33.60
2019-03-20T15:48:11.994Z,33.50
2019-03-20T15:57:37.718Z,35.20
2019-03-20T16:00:39.775Z,36.40
2019-03-20T16:10:24.737Z,36.40
2019-03-20T16:13:26.562Z,38.20
2019-03-20T16:16:28.337Z,38.00
2019-03-20T16:19:29.672Z,38.70
2019-03-20T16:22:30.920Z,39.40
2019-03-20T16:25:38.271Z,39.50
2019-03-20T16:28:39.543Z,40.00
2019-03-20T16:31:40.880Z,38.20
2019-03-20T16:34:42.157Z,39.30
2019-03-20T16:37:43.877Z,40.00
2019-03-20T16:40:45.115Z,40.40
2019-03-20T16:43:46.375Z,40.70
2019-03-20T16:49:43.130Z,42.00
2019-03-20T16:52:45.025Z,42.50
2019-03-20T16:55:52.199Z,42.20
2019-03-20T16:58:53.675Z,43.00
2019-03-20T17:01:55.747Z,43.10
2019-03-20T17:04:57.327Z,44.20
2019-03-20T17:07:59.049Z,44.50
2019-03-20T17:14:06.058Z,44.40
2019-03-20T17:17:07.982Z,45.40
2019-03-20T17:20:09.484Z,45.70
2019-03-20T17:36:50.115Z,46.60
2019-03-20T17:53:19.084Z,49.80
2019-03-20T17:59:42.536Z,51.20
2019-03-20T18:02:44.001Z,52.90
2019-03-20T18:36:11.734Z,53.10
2019-03-20T18:39:13.714Z,56.10
2019-03-20T18:42:15.223Z,55.70
2019-03-20T18:45:17.119Z,56.10
2019-03-20T18:48:18.943Z,56.20
2019-03-20T18:51:21.019Z,56.50
2019-03-20T18:54:22.370Z,56.90
2019-03-20T18:57:23.825Z,57.50
2019-03-20T19:03:32.827Z,59.80
2019-03-20T19:06:34.127Z,61.50
2019-03-20T19:09:35.855Z,62.20
2019-03-20T19:12:37.427Z,64.00
2019-03-20T19:15:38.767Z,67.80
2019-03-20T19:18:40.555Z,73.60
2019-03-20T19:21:41.860Z,80.60
2019-03-20T19:24:42.802Z,86.90
2019-03-20T19:27:44.269Z,92.10
2019-03-20T19:33:51.167Z,95.90
2019-03-20T19:40:26.287Z,96.10
2019-03-20T19:43:27.028Z,96.80
2019-03-20T19:46:28.334Z,97.20
2019-03-20T19:49:29.239Z,97.80
2019-03-20T19:52:30.413Z,98.20
2019-03-20T19:55:31.465Z,99.00
2019-03-20T19:58:33.113Z,99.40
2019-03-20T20:04:40.815Z,99.30
2019-03-20T20:07:43.007Z,99.90
2019-03-20T20:10:44.787Z,99.90
2019-03-20T20:16:52.802Z,99.90
2019-03-20T20:19:53.867Z,99.90
2019-03-20T20:22:55.477Z,99.90
2019-03-20T20:25:57.388Z,99.90
2019-03-20T20:28:58.701Z,99.90
2019-03-20T20:35:15.183Z,99.90
2019-03-20T20:38:16.693Z,99.90
2019-03-20T20:41:18.543Z,99.90
2019-03-20T20:44:19.934Z,99.90
2019-03-20T20:47:21.846Z,99.90
2019-03-20T20:50:23.304Z,99.90
2019-03-20T20:53:24.476Z,99.90
2019-03-20T20:56:26.103Z,99.90
2019-03-20T20:59:27.279Z,99.90
2019-03-20T21:05:41.253Z,99.90
2019-03-20T21:08:30.827Z,99.90
2019-03-20T21:14:35.302Z,99.90
2019-03-20T21:20:58.891Z,99.90
2019-03-20T21:24:00.920Z,99.90
2019-03-20T21:27:02.143Z,99.90
2019-03-20T21:30:03.584Z,99.90
2019-03-20T21:32:54.249Z,99.90
2019-03-20T21:36:22.376Z,99.90
2019-03-20T21:39:24.871Z,99.90
2019-03-20T21:42:25.955Z,99.90
2019-03-20T21:45:27.401Z,99.90
2019-03-20T21:48:17.479Z,99.90
2019-03-20T21:51:26.623Z,99.90
2019-03-20T21:54:27.823Z,99.90
2019-03-20T21:57:29.149Z,99.90
2019-03-20T22:00:30.741Z,99.90
2019-03-20T22:06:38.693Z,99.90
2019-03-20T22:09:41.948Z,99.90
2019-03-20T22:12:43.095Z,99.90
2019-03-20T22:15:44.732Z,99.90
2019-03-20T22:18:46.203Z,99.90
2019-03-20T22:21:47.740Z,99.90
2019-03-20T22:24:49.249Z,99.90
2019-03-20T22:27:51.152Z,99.90
2019-03-20T22:30:52.767Z,99.90
2019-03-20T22:37:00.891Z,99.90
2019-03-20T22:40:02.476Z,99.90
2019-03-20T22:43:04.071Z,99.90
2019-03-20T22:46:05.924Z,99.90
2019-03-20T22:49:07.615Z,99.90
2019-03-20T22:52:09.051Z,99.90
2019-03-20T22:55:10.369Z,99.90
2019-03-20T22:58:11.511Z,99.90
2019-03-20T23:01:12.986Z,99.90
2019-03-20T23:07:21.148Z,99.90
2019-03-20T23:10:22.672Z,99.90
2019-03-20T23:13:24.456Z,99.90
2019-03-20T23:16:25.807Z,99.90
2019-03-20T23:19:27.438Z,99.90
2019-03-20T23:22:28.900Z,99.90
2019-03-20T23:25:30.090Z,99.90
2019-03-20T23:28:31.866Z,99.90
2019-03-20T23:31:33.747Z,99.90
2019-03-20T23:37:41.704Z,99.90
2019-03-20T23:40:42.060Z,99.90
2019-03-20T23:43:52.531Z,99.90
2019-03-20T23:46:49.500Z,99.90
2019-03-20T23:49:51.345Z,99.90
2019-03-20T23:52:52.459Z,99.90
2019-03-20T23:55:53.627Z,99.90
2019-03-20T23:58:55.440Z,99.90
